大阪市立科学館 学芸員

 江越 航のホームページ

大阪市立科学館 屋上ライブカメラ

現在の科学館上空の様子
ライブカメラ

環境データ

過去24時間の環境変化
環境トレンド
凡例
過去1週間の環境変化
気象データ

数値計算データ(NOAA)

海面更正気圧 地表付近の風
海面更正気圧 地表付近の風
850hPa面の温度 850hPa面の相対湿度
850hPa面の温度 850hPa面の相対湿度

定時航空実況気象通報式(METAR)

大阪空港 定時航空実況気象通報式
17日13時00分(JST)
RJOO 170400Z 07010KT 020V100 9999 FEW030 SCT050 BKN/// 23/14 Q1021 RMK 1CU030 3SC050 A3016
CU 積雲
雲量 :1/8
雲底高度 :3000 feet
SC 層積雲
雲量 :3/8
雲底高度 :5000 feet

関西国際空港 定時航空実況気象通報式
17日13時30分(JST)
RJBB 170430Z 04010KT 9999 FEW030 BKN050 22/15 Q1021 NOSIG

気象庁XML 受信データ

大阪府府県天気予報
2019-10-17T11:00:00+09:00
今日 くもり 所により 夜 雨

府県天気概況
2019-10-17T10:32:00+09:00
 近畿地方は、湿った空気の影響でおおむね曇りとなっています。

 今日の近畿地方は、湿った空気の影響で曇り、夜は南部を中心に雨が降り、雷を伴う所もある見込みです。

 明日の近畿地方は、湿った空気や前線の影響で断続的に雨が降るでしょう。南部では雷を伴う所もある見込みです。